sensor_id;sensor_type;location;lat;lon;timestamp;P1;durP1;ratioP1;P2;durP2;ratioP2
5787;SDS011;2920;48.158;12.254;2022-09-03T00:03:02;2.40;;;1.90;;
5787;SDS011;2920;48.158;12.254;2022-09-03T00:05:46;2.17;;;1.40;;
5787;SDS011;2920;48.158;12.254;2022-09-03T00:08:26;2.17;;;1.60;;
5787;SDS011;2920;48.158;12.254;2022-09-03T00:11:02;2.35;;;1.90;;
5787;SDS011;2920;48.158;12.254;2022-09-03T00:13:35;2.88;;;1.88;;
5787;SDS011;2920;48.158;12.254;2022-09-03T00:16:08;1.50;;;1.38;;
5787;SDS011;2920;48.158;12.254;2022-09-03T00:18:47;1.90;;;1.70;;
5787;SDS011;2920;48.158;12.254;2022-09-03T00:22:03;2.13;;;1.90;;
5787;SDS011;2920;48.158;12.254;2022-09-03T00:24:12;2.30;;;1.77;;
5787;SDS011;2920;48.158;12.254;2022-09-03T00:26:39;1.80;;;1.45;;
5787;SDS011;2920;48.158;12.254;2022-09-03T00:29:17;2.35;;;1.83;;
5787;SDS011;2920;48.158;12.254;2022-09-03T00:31:59;5.45;;;2.13;;
5787;SDS011;2920;48.158;12.254;2022-09-03T00:36:53;3.57;;;1.50;;
5787;SDS011;2920;48.158;12.254;2022-09-03T00:39:19;2.63;;;1.75;;
5787;SDS011;2920;48.158;12.254;2022-09-03T00:41:55;2.65;;;1.98;;
5787;SDS011;2920;48.158;12.254;2022-09-03T00:47:45;4.72;;;1.67;;
5787;SDS011;2920;48.158;12.254;2022-09-03T00:58:46;1.70;;;1.30;;
5787;SDS011;2920;48.158;12.254;2022-09-03T01:01:21;2.83;;;1.90;;
5787;SDS011;2920;48.158;12.254;2022-09-03T01:06:44;2.13;;;1.70;;
5787;SDS011;2920;48.158;12.254;2022-09-03T01:12:00;1.50;;;1.40;;
5787;SDS011;2920;48.158;12.254;2022-09-03T01:17:33;2.25;;;1.60;;
5787;SDS011;2920;48.158;12.254;2022-09-03T01:39:56;1.80;;;1.60;;
5787;SDS011;2920;48.158;12.254;2022-09-03T01:46:16;4.15;;;2.05;;
5787;SDS011;2920;48.158;12.254;2022-09-03T01:59:12;2.00;;;1.50;;
5787;SDS011;2920;48.158;12.254;2022-09-03T02:01:45;1.23;;;1.10;;
5787;SDS011;2920;48.158;12.254;2022-09-03T02:04:16;1.48;;;1.35;;
5787;SDS011;2920;48.158;12.254;2022-09-03T02:06:44;2.07;;;1.50;;
5787;SDS011;2920;48.158;12.254;2022-09-03T02:09:12;2.70;;;1.67;;
5787;SDS011;2920;48.158;12.254;2022-09-03T02:11:39;1.98;;;1.70;;
5787;SDS011;2920;48.158;12.254;2022-09-03T02:14:05;1.60;;;1.50;;
5787;SDS011;2920;48.158;12.254;2022-09-03T02:16:30;2.00;;;1.48;;
5787;SDS011;2920;48.158;12.254;2022-09-03T02:19:02;1.83;;;1.55;;
5787;SDS011;2920;48.158;12.254;2022-09-03T02:21:34;1.98;;;1.67;;
5787;SDS011;2920;48.158;12.254;2022-09-03T02:26:25;2.53;;;1.80;;
5787;SDS011;2920;48.158;12.254;2022-09-03T02:28:50;1.98;;;1.30;;
5787;SDS011;2920;48.158;12.254;2022-09-03T02:31:17;1.58;;;1.48;;
5787;SDS011;2920;48.158;12.254;2022-09-03T02:33:43;2.50;;;1.58;;
5787;SDS011;2920;48.158;12.254;2022-09-03T02:36:11;5.40;;;2.67;;
5787;SDS011;2920;48.158;12.254;2022-09-03T02:38:39;2.83;;;2.17;;
5787;SDS011;2920;48.158;12.254;2022-09-03T02:41:05;7.45;;;1.80;;
5787;SDS011;2920;48.158;12.254;2022-09-03T02:46:26;2.92;;;1.92;;
5787;SDS011;2920;48.158;12.254;2022-09-03T02:49:04;4.60;;;2.30;;
5787;SDS011;2920;48.158;12.254;2022-09-03T02:51:37;3.72;;;2.42;;
5787;SDS011;2920;48.158;12.254;2022-09-03T02:54:04;2.70;;;2.15;;
5787;SDS011;2920;48.158;12.254;2022-09-03T02:56:29;4.15;;;1.92;;
5787;SDS011;2920;48.158;12.254;2022-09-03T02:58:55;3.47;;;1.98;;
5787;SDS011;2920;48.158;12.254;2022-09-03T03:01:21;2.25;;;1.80;;
5787;SDS011;2920;48.158;12.254;2022-09-03T03:03:46;2.28;;;1.50;;
5787;SDS011;2920;48.158;12.254;2022-09-03T03:06:12;2.75;;;2.40;;
5787;SDS011;2920;48.158;12.254;2022-09-03T03:08:38;3.67;;;2.15;;
5787;SDS011;2920;48.158;12.254;2022-09-03T03:11:04;1.88;;;1.70;;
5787;SDS011;2920;48.158;12.254;2022-09-03T03:13:30;2.53;;;2.30;;
5787;SDS011;2920;48.158;12.254;2022-09-03T03:15:59;3.70;;;2.35;;
5787;SDS011;2920;48.158;12.254;2022-09-03T03:18:25;3.80;;;2.88;;
5787;SDS011;2920;48.158;12.254;2022-09-03T03:20:52;2.72;;;1.98;;
5787;SDS011;2920;48.158;12.254;2022-09-03T03:23:18;3.22;;;2.03;;
5787;SDS011;2920;48.158;12.254;2022-09-03T03:25:44;4.28;;;2.72;;
5787;SDS011;2920;48.158;12.254;2022-09-03T03:28:09;2.60;;;1.90;;
5787;SDS011;2920;48.158;12.254;2022-09-03T03:30:38;2.10;;;1.90;;
5787;SDS011;2920;48.158;12.254;2022-09-03T03:33:04;7.00;;;2.45;;
5787;SDS011;2920;48.158;12.254;2022-09-03T03:35:30;3.15;;;2.25;;
5787;SDS011;2920;48.158;12.254;2022-09-03T03:37:58;4.32;;;2.80;;
5787;SDS011;2920;48.158;12.254;2022-09-03T03:40:24;2.42;;;1.80;;
5787;SDS011;2920;48.158;12.254;2022-09-03T03:42:50;2.35;;;1.92;;
5787;SDS011;2920;48.158;12.254;2022-09-03T03:45:15;3.38;;;2.33;;
5787;SDS011;2920;48.158;12.254;2022-09-03T03:47:41;2.63;;;2.00;;
5787;SDS011;2920;48.158;12.254;2022-09-03T03:50:06;2.67;;;1.63;;
5787;SDS011;2920;48.158;12.254;2022-09-03T03:52:32;2.90;;;2.13;;
5787;SDS011;2920;48.158;12.254;2022-09-03T03:54:57;4.10;;;2.47;;
5787;SDS011;2920;48.158;12.254;2022-09-03T03:57:23;3.40;;;2.10;;
5787;SDS011;2920;48.158;12.254;2022-09-03T03:59:48;2.80;;;1.92;;
5787;SDS011;2920;48.158;12.254;2022-09-03T04:02:14;4.22;;;2.40;;
5787;SDS011;2920;48.158;12.254;2022-09-03T04:04:40;4.00;;;2.20;;
5787;SDS011;2920;48.158;12.254;2022-09-03T04:07:05;3.30;;;1.80;;
5787;SDS011;2920;48.158;12.254;2022-09-03T04:09:31;4.03;;;2.20;;
5787;SDS011;2920;48.158;12.254;2022-09-03T04:11:56;2.47;;;2.08;;
5787;SDS011;2920;48.158;12.254;2022-09-03T04:14:22;2.55;;;1.48;;
5787;SDS011;2920;48.158;12.254;2022-09-03T04:16:48;2.53;;;2.00;;
5787;SDS011;2920;48.158;12.254;2022-09-03T04:19:15;2.13;;;1.90;;
5787;SDS011;2920;48.158;12.254;2022-09-03T04:21:40;3.55;;;2.50;;
5787;SDS011;2920;48.158;12.254;2022-09-03T04:24:06;3.60;;;2.13;;
5787;SDS011;2920;48.158;12.254;2022-09-03T04:26:31;3.20;;;2.42;;
5787;SDS011;2920;48.158;12.254;2022-09-03T04:29:01;3.38;;;2.05;;
5787;SDS011;2920;48.158;12.254;2022-09-03T04:31:28;2.67;;;1.90;;
5787;SDS011;2920;48.158;12.254;2022-09-03T04:33:53;6.85;;;2.08;;
5787;SDS011;2920;48.158;12.254;2022-09-03T04:36:20;3.80;;;2.38;;
5787;SDS011;2920;48.158;12.254;2022-09-03T04:38:47;3.85;;;2.20;;
5787;SDS011;2920;48.158;12.254;2022-09-03T04:41:15;2.45;;;1.90;;
5787;SDS011;2920;48.158;12.254;2022-09-03T04:43:43;2.58;;;1.98;;
5787;SDS011;2920;48.158;12.254;2022-09-03T04:46:09;3.15;;;2.25;;
5787;SDS011;2920;48.158;12.254;2022-09-03T04:48:35;3.63;;;2.03;;
5787;SDS011;2920;48.158;12.254;2022-09-03T04:51:08;2.70;;;2.20;;
5787;SDS011;2920;48.158;12.254;2022-09-03T04:53:36;3.85;;;2.08;;
5787;SDS011;2920;48.158;12.254;2022-09-03T04:56:10;2.60;;;1.98;;
5787;SDS011;2920;48.158;12.254;2022-09-03T04:58:37;3.10;;;2.30;;
5787;SDS011;2920;48.158;12.254;2022-09-03T05:01:09;6.10;;;2.13;;
5787;SDS011;2920;48.158;12.254;2022-09-03T05:03:41;2.10;;;1.90;;
5787;SDS011;2920;48.158;12.254;2022-09-03T05:06:06;2.50;;;2.20;;
5787;SDS011;2920;48.158;12.254;2022-09-03T05:08:32;2.45;;;1.98;;
5787;SDS011;2920;48.158;12.254;2022-09-03T05:11:07;3.25;;;2.40;;
5787;SDS011;2920;48.158;12.254;2022-09-03T05:13:33;2.63;;;2.15;;
5787;SDS011;2920;48.158;12.254;2022-09-03T05:15:59;2.50;;;1.98;;
5787;SDS011;2920;48.158;12.254;2022-09-03T05:18:26;2.58;;;2.13;;
5787;SDS011;2920;48.158;12.254;2022-09-03T05:21:01;3.10;;;1.98;;
5787;SDS011;2920;48.158;12.254;2022-09-03T05:23:31;2.10;;;1.90;;
5787;SDS011;2920;48.158;12.254;2022-09-03T05:26:00;2.58;;;2.20;;
5787;SDS011;2920;48.158;12.254;2022-09-03T05:28:27;2.83;;;1.98;;
5787;SDS011;2920;48.158;12.254;2022-09-03T05:31:04;3.58;;;2.20;;
5787;SDS011;2920;48.158;12.254;2022-09-03T05:33:37;6.80;;;2.35;;
5787;SDS011;2920;48.158;12.254;2022-09-03T05:36:08;2.60;;;2.20;;
5787;SDS011;2920;48.158;12.254;2022-09-03T05:38:35;3.30;;;2.40;;
5787;SDS011;2920;48.158;12.254;2022-09-03T05:41:02;2.67;;;2.05;;
5787;SDS011;2920;48.158;12.254;2022-09-03T05:43:29;2.50;;;2.15;;
5787;SDS011;2920;48.158;12.254;2022-09-03T05:45:59;3.90;;;2.00;;
5787;SDS011;2920;48.158;12.254;2022-09-03T05:48:26;2.35;;;1.80;;
5787;SDS011;2920;48.158;12.254;2022-09-03T05:50:57;2.63;;;2.17;;
5787;SDS011;2920;48.158;12.254;2022-09-03T05:53:27;2.67;;;2.30;;
5787;SDS011;2920;48.158;12.254;2022-09-03T05:55:56;3.50;;;2.42;;
5787;SDS011;2920;48.158;12.254;2022-09-03T05:58:35;2.53;;;2.22;;
5787;SDS011;2920;48.158;12.254;2022-09-03T06:01:11;1.70;;;1.48;;
5787;SDS011;2920;48.158;12.254;2022-09-03T06:03:42;3.38;;;2.30;;
5787;SDS011;2920;48.158;12.254;2022-09-03T06:06:08;4.03;;;2.88;;
5787;SDS011;2920;48.158;12.254;2022-09-03T06:08:34;4.18;;;2.65;;
5787;SDS011;2920;48.158;12.254;2022-09-03T06:11:02;3.72;;;2.50;;
5787;SDS011;2920;48.158;12.254;2022-09-03T06:13:28;3.67;;;2.75;;
5787;SDS011;2920;48.158;12.254;2022-09-03T06:15:55;3.95;;;2.95;;
5787;SDS011;2920;48.158;12.254;2022-09-03T06:21:00;6.93;;;3.28;;
5787;SDS011;2920;48.158;12.254;2022-09-03T06:23:27;7.22;;;3.65;;
5787;SDS011;2920;48.158;12.254;2022-09-03T06:28:35;3.88;;;2.80;;
5787;SDS011;2920;48.158;12.254;2022-09-03T06:31:02;4.32;;;3.47;;
5787;SDS011;2920;48.158;12.254;2022-09-03T06:33:29;3.35;;;2.78;;
5787;SDS011;2920;48.158;12.254;2022-09-03T06:36:02;3.83;;;2.80;;
5787;SDS011;2920;48.158;12.254;2022-09-03T06:38:29;18.13;;;4.75;;
5787;SDS011;2920;48.158;12.254;2022-09-03T06:41:10;8.07;;;3.40;;
5787;SDS011;2920;48.158;12.254;2022-09-03T06:43:37;3.08;;;2.50;;
5787;SDS011;2920;48.158;12.254;2022-09-03T06:46:08;3.55;;;2.75;;
5787;SDS011;2920;48.158;12.254;2022-09-03T06:48:34;4.88;;;2.90;;
5787;SDS011;2920;48.158;12.254;2022-09-03T06:53:31;4.65;;;2.85;;
5787;SDS011;2920;48.158;12.254;2022-09-03T06:55:59;3.72;;;2.40;;
5787;SDS011;2920;48.158;12.254;2022-09-03T06:58:33;4.35;;;3.08;;
5787;SDS011;2920;48.158;12.254;2022-09-03T07:01:09;3.90;;;2.40;;
5787;SDS011;2920;48.158;12.254;2022-09-03T07:03:37;4.47;;;3.45;;
5787;SDS011;2920;48.158;12.254;2022-09-03T07:06:07;4.38;;;3.10;;
5787;SDS011;2920;48.158;12.254;2022-09-03T07:08:33;4.13;;;3.20;;
5787;SDS011;2920;48.158;12.254;2022-09-03T07:10:59;5.20;;;3.40;;
5787;SDS011;2920;48.158;12.254;2022-09-03T07:13:29;3.88;;;2.88;;
5787;SDS011;2920;48.158;12.254;2022-09-03T07:16:01;5.22;;;3.22;;
5787;SDS011;2920;48.158;12.254;2022-09-03T07:18:29;4.32;;;3.40;;
5787;SDS011;2920;48.158;12.254;2022-09-03T07:20:57;4.72;;;3.58;;
5787;SDS011;2920;48.158;12.254;2022-09-03T07:23:24;5.82;;;3.00;;
5787;SDS011;2920;48.158;12.254;2022-09-03T07:25:56;3.38;;;2.33;;
5787;SDS011;2920;48.158;12.254;2022-09-03T07:28:24;3.30;;;2.10;;
5787;SDS011;2920;48.158;12.254;2022-09-03T07:30:50;11.50;;;2.63;;
5787;SDS011;2920;48.158;12.254;2022-09-03T07:33:16;4.40;;;2.13;;
5787;SDS011;2920;48.158;12.254;2022-09-03T07:35:43;3.08;;;2.47;;
5787;SDS011;2920;48.158;12.254;2022-09-03T07:38:09;6.05;;;2.20;;
5787;SDS011;2920;48.158;12.254;2022-09-03T07:40:35;3.78;;;2.38;;
5787;SDS011;2920;48.158;12.254;2022-09-03T07:43:00;4.78;;;2.88;;
5787;SDS011;2920;48.158;12.254;2022-09-03T07:45:28;4.97;;;2.83;;
5787;SDS011;2920;48.158;12.254;2022-09-03T07:47:53;4.53;;;3.17;;
5787;SDS011;2920;48.158;12.254;2022-09-03T07:50:19;4.15;;;2.40;;
5787;SDS011;2920;48.158;12.254;2022-09-03T07:52:44;3.92;;;2.30;;
5787;SDS011;2920;48.158;12.254;2022-09-03T07:55:11;3.90;;;2.67;;
5787;SDS011;2920;48.158;12.254;2022-09-03T07:57:37;3.17;;;2.42;;
5787;SDS011;2920;48.158;12.254;2022-09-03T08:00:03;6.65;;;2.05;;
5787;SDS011;2920;48.158;12.254;2022-09-03T08:02:30;3.83;;;2.38;;
5787;SDS011;2920;48.158;12.254;2022-09-03T08:04:56;5.00;;;3.00;;
5787;SDS011;2920;48.158;12.254;2022-09-03T08:07:21;3.03;;;2.47;;
5787;SDS011;2920;48.158;12.254;2022-09-03T08:09:46;3.08;;;2.42;;
5787;SDS011;2920;48.158;12.254;2022-09-03T08:12:11;3.13;;;2.17;;
5787;SDS011;2920;48.158;12.254;2022-09-03T08:14:37;4.07;;;2.45;;
5787;SDS011;2920;48.158;12.254;2022-09-03T08:17:02;6.03;;;2.58;;
5787;SDS011;2920;48.158;12.254;2022-09-03T08:19:28;3.25;;;2.25;;
5787;SDS011;2920;48.158;12.254;2022-09-03T08:21:53;3.10;;;2.10;;
5787;SDS011;2920;48.158;12.254;2022-09-03T08:24:19;4.63;;;2.15;;
5787;SDS011;2920;48.158;12.254;2022-09-03T08:26:49;2.65;;;2.22;;
5787;SDS011;2920;48.158;12.254;2022-09-03T08:29:15;3.10;;;2.30;;
5787;SDS011;2920;48.158;12.254;2022-09-03T08:31:40;3.30;;;3.00;;
5787;SDS011;2920;48.158;12.254;2022-09-03T08:34:06;5.00;;;3.53;;
5787;SDS011;2920;48.158;12.254;2022-09-03T08:36:35;2.53;;;2.30;;
5787;SDS011;2920;48.158;12.254;2022-09-03T08:39:03;4.97;;;2.60;;
5787;SDS011;2920;48.158;12.254;2022-09-03T08:49:47;4.95;;;2.70;;
5787;SDS011;2920;48.158;12.254;2022-09-03T08:52:36;4.00;;;2.42;;
5787;SDS011;2920;48.158;12.254;2022-09-03T08:58:05;4.65;;;2.97;;
5787;SDS011;2920;48.158;12.254;2022-09-03T09:19:49;3.25;;;2.75;;
5787;SDS011;2920;48.158;12.254;2022-09-03T09:22:21;3.58;;;2.92;;
5787;SDS011;2920;48.158;12.254;2022-09-03T09:24:52;3.80;;;2.28;;
5787;SDS011;2920;48.158;12.254;2022-09-03T09:27:19;2.83;;;2.25;;
5787;SDS011;2920;48.158;12.254;2022-09-03T09:29:48;3.53;;;2.63;;
5787;SDS011;2920;48.158;12.254;2022-09-03T09:32:15;2.45;;;2.13;;
5787;SDS011;2920;48.158;12.254;2022-09-03T09:34:41;2.78;;;2.53;;
5787;SDS011;2920;48.158;12.254;2022-09-03T09:37:09;2.17;;;1.90;;
5787;SDS011;2920;48.158;12.254;2022-09-03T09:39:37;1.98;;;1.77;;
5787;SDS011;2920;48.158;12.254;2022-09-03T09:42:07;3.83;;;3.42;;
5787;SDS011;2920;48.158;12.254;2022-09-03T09:44:38;3.08;;;2.40;;
5787;SDS011;2920;48.158;12.254;2022-09-03T09:47:07;3.50;;;2.22;;
5787;SDS011;2920;48.158;12.254;2022-09-03T09:49:36;2.95;;;2.30;;
5787;SDS011;2920;48.158;12.254;2022-09-03T09:52:07;4.38;;;2.88;;
5787;SDS011;2920;48.158;12.254;2022-09-03T09:54:36;2.65;;;2.40;;
5787;SDS011;2920;48.158;12.254;2022-09-03T09:57:06;4.30;;;2.63;;
5787;SDS011;2920;48.158;12.254;2022-09-03T09:59:33;4.85;;;3.30;;
5787;SDS011;2920;48.158;12.254;2022-09-03T10:02:46;3.55;;;3.10;;
5787;SDS011;2920;48.158;12.254;2022-09-03T10:05:00;4.45;;;2.50;;
5787;SDS011;2920;48.158;12.254;2022-09-03T10:07:36;3.30;;;2.15;;
5787;SDS011;2920;48.158;12.254;2022-09-03T10:15:14;11.85;;;3.45;;
5787;SDS011;2920;48.158;12.254;2022-09-03T10:23:19;3.85;;;2.92;;
5787;SDS011;2920;48.158;12.254;2022-09-03T10:28:17;3.22;;;2.67;;
5787;SDS011;2920;48.158;12.254;2022-09-03T10:33:46;3.25;;;2.58;;
5787;SDS011;2920;48.158;12.254;2022-09-03T10:38:44;2.50;;;2.30;;
5787;SDS011;2920;48.158;12.254;2022-09-03T10:41:18;4.35;;;2.90;;
5787;SDS011;2920;48.158;12.254;2022-09-03T10:46:21;4.18;;;2.38;;
5787;SDS011;2920;48.158;12.254;2022-09-03T10:49:03;2.55;;;2.13;;
5787;SDS011;2920;48.158;12.254;2022-09-03T10:51:35;2.72;;;2.20;;
5787;SDS011;2920;48.158;12.254;2022-09-03T10:54:16;2.10;;;1.77;;
5787;SDS011;2920;48.158;12.254;2022-09-03T10:59:37;2.53;;;1.63;;
5787;SDS011;2920;48.158;12.254;2022-09-03T11:10:32;2.08;;;1.63;;
5787;SDS011;2920;48.158;12.254;2022-09-03T11:15:31;2.78;;;1.80;;
5787;SDS011;2920;48.158;12.254;2022-09-03T11:20:43;3.20;;;1.88;;
5787;SDS011;2920;48.158;12.254;2022-09-03T11:23:09;3.08;;;1.98;;
5787;SDS011;2920;48.158;12.254;2022-09-03T11:25:40;3.97;;;2.00;;
5787;SDS011;2920;48.158;12.254;2022-09-03T11:33:46;2.92;;;1.80;;
5787;SDS011;2920;48.158;12.254;2022-09-03T11:36:13;2.10;;;1.90;;
5787;SDS011;2920;48.158;12.254;2022-09-03T11:38:47;2.00;;;1.60;;
5787;SDS011;2920;48.158;12.254;2022-09-03T11:41:23;2.80;;;1.73;;
5787;SDS011;2920;48.158;12.254;2022-09-03T11:43:51;2.28;;;1.85;;
5787;SDS011;2920;48.158;12.254;2022-09-03T11:48:47;1.88;;;1.52;;
5787;SDS011;2920;48.158;12.254;2022-09-03T11:51:38;3.85;;;1.85;;
5787;SDS011;2920;48.158;12.254;2022-09-03T11:56:38;1.73;;;1.48;;
5787;SDS011;2920;48.158;12.254;2022-09-03T12:01:41;2.53;;;1.88;;
5787;SDS011;2920;48.158;12.254;2022-09-03T12:04:17;3.88;;;1.85;;
5787;SDS011;2920;48.158;12.254;2022-09-03T12:20:44;3.20;;;2.17;;
5787;SDS011;2920;48.158;12.254;2022-09-03T12:23:11;2.67;;;2.30;;
5787;SDS011;2920;48.158;12.254;2022-09-03T12:25:45;2.90;;;2.13;;
5787;SDS011;2920;48.158;12.254;2022-09-03T12:28:12;4.55;;;2.85;;
5787;SDS011;2920;48.158;12.254;2022-09-03T12:30:41;3.33;;;2.42;;
5787;SDS011;2920;48.158;12.254;2022-09-03T12:33:06;2.67;;;2.38;;
5787;SDS011;2920;48.158;12.254;2022-09-03T12:35:32;2.88;;;2.40;;
5787;SDS011;2920;48.158;12.254;2022-09-03T12:37:58;2.55;;;2.17;;
5787;SDS011;2920;48.158;12.254;2022-09-03T12:40:27;3.63;;;2.50;;
5787;SDS011;2920;48.158;12.254;2022-09-03T12:42:54;4.05;;;2.95;;
5787;SDS011;2920;48.158;12.254;2022-09-03T12:45:23;5.80;;;2.63;;
5787;SDS011;2920;48.158;12.254;2022-09-03T12:47:50;4.25;;;2.63;;
5787;SDS011;2920;48.158;12.254;2022-09-03T12:50:20;7.90;;;2.65;;
5787;SDS011;2920;48.158;12.254;2022-09-03T12:52:57;3.33;;;2.10;;
5787;SDS011;2920;48.158;12.254;2022-09-03T12:57:58;3.17;;;1.90;;
5787;SDS011;2920;48.158;12.254;2022-09-03T13:00:28;2.33;;;2.13;;
5787;SDS011;2920;48.158;12.254;2022-09-03T13:05:50;2.70;;;1.90;;
5787;SDS011;2920;48.158;12.254;2022-09-03T13:10:50;2.35;;;2.00;;
5787;SDS011;2920;48.158;12.254;2022-09-03T13:13:21;2.28;;;2.00;;
5787;SDS011;2920;48.158;12.254;2022-09-03T13:18:26;4.28;;;2.00;;
5787;SDS011;2920;48.158;12.254;2022-09-03T13:23:47;3.90;;;2.15;;
5787;SDS011;2920;48.158;12.254;2022-09-03T13:26:23;3.08;;;2.42;;
5787;SDS011;2920;48.158;12.254;2022-09-03T13:31:59;6.53;;;2.03;;
5787;SDS011;2920;48.158;12.254;2022-09-03T13:34:39;3.00;;;1.98;;
5787;SDS011;2920;48.158;12.254;2022-09-03T13:37:25;2.53;;;2.30;;
5787;SDS011;2920;48.158;12.254;2022-09-03T13:40:17;2.30;;;2.10;;
5787;SDS011;2920;48.158;12.254;2022-09-03T13:42:50;4.10;;;2.10;;
5787;SDS011;2920;48.158;12.254;2022-09-03T13:45:25;2.10;;;1.90;;
5787;SDS011;2920;48.158;12.254;2022-09-03T13:48:05;4.32;;;1.85;;
5787;SDS011;2920;48.158;12.254;2022-09-03T14:04:42;2.33;;;2.13;;
5787;SDS011;2920;48.158;12.254;2022-09-03T14:07:18;3.65;;;1.85;;
5787;SDS011;2920;48.158;12.254;2022-09-03T14:10:05;5.50;;;2.00;;
5787;SDS011;2920;48.158;12.254;2022-09-03T14:20:21;2.00;;;1.80;;
5787;SDS011;2920;48.158;12.254;2022-09-03T14:23:00;2.53;;;1.95;;
5787;SDS011;2920;48.158;12.254;2022-09-03T14:25:32;2.30;;;2.10;;
5787;SDS011;2920;48.158;12.254;2022-09-03T14:31:05;2.20;;;2.00;;
5787;SDS011;2920;48.158;12.254;2022-09-03T14:36:54;2.28;;;1.60;;
5787;SDS011;2920;48.158;12.254;2022-09-03T14:39:38;2.22;;;2.00;;
5787;SDS011;2920;48.158;12.254;2022-09-03T14:45:12;2.25;;;1.95;;
5787;SDS011;2920;48.158;12.254;2022-09-03T15:01:42;1.42;;;1.33;;
5787;SDS011;2920;48.158;12.254;2022-09-03T15:12:43;1.48;;;1.35;;
5787;SDS011;2920;48.158;12.254;2022-09-03T15:15:18;1.65;;;1.48;;
5787;SDS011;2920;48.158;12.254;2022-09-03T15:21:25;1.30;;;1.20;;
5787;SDS011;2920;48.158;12.254;2022-09-03T15:32:15;1.67;;;1.58;;
5787;SDS011;2920;48.158;12.254;2022-09-03T15:37:31;2.90;;;1.80;;
5787;SDS011;2920;48.158;12.254;2022-09-03T15:42:49;2.33;;;1.80;;
5787;SDS011;2920;48.158;12.254;2022-09-03T15:48:36;2.60;;;2.00;;
5787;SDS011;2920;48.158;12.254;2022-09-03T15:54:21;2.30;;;2.10;;
5787;SDS011;2920;48.158;12.254;2022-09-03T15:59:59;2.60;;;2.30;;
5787;SDS011;2920;48.158;12.254;2022-09-03T16:05:54;3.72;;;2.90;;
5787;SDS011;2920;48.158;12.254;2022-09-03T16:08:27;7.47;;;2.80;;
5787;SDS011;2920;48.158;12.254;2022-09-03T16:11:09;5.55;;;3.53;;
5787;SDS011;2920;48.158;12.254;2022-09-03T16:16:32;3.25;;;2.72;;
5787;SDS011;2920;48.158;12.254;2022-09-03T16:19:16;7.82;;;2.58;;
5787;SDS011;2920;48.158;12.254;2022-09-03T16:21:50;2.72;;;2.28;;
5787;SDS011;2920;48.158;12.254;2022-09-03T16:24:36;4.25;;;2.03;;
5787;SDS011;2920;48.158;12.254;2022-09-03T16:27:17;2.85;;;2.10;;
5787;SDS011;2920;48.158;12.254;2022-09-03T16:29:55;3.17;;;1.90;;
5787;SDS011;2920;48.158;12.254;2022-09-03T16:43:05;2.55;;;1.60;;
5787;SDS011;2920;48.158;12.254;2022-09-03T16:48:40;4.18;;;2.13;;
5787;SDS011;2920;48.158;12.254;2022-09-03T17:02:40;7.18;;;2.05;;
5787;SDS011;2920;48.158;12.254;2022-09-03T17:10:34;5.65;;;2.63;;
5787;SDS011;2920;48.158;12.254;2022-09-03T17:15:52;3.58;;;1.80;;
5787;SDS011;2920;48.158;12.254;2022-09-03T17:18:30;2.78;;;1.80;;
5787;SDS011;2920;48.158;12.254;2022-09-03T17:31:55;3.42;;;1.60;;
5787;SDS011;2920;48.158;12.254;2022-09-03T17:42:28;1.95;;;1.33;;
5787;SDS011;2920;48.158;12.254;2022-09-03T17:53:30;2.55;;;1.10;;
5787;SDS011;2920;48.158;12.254;2022-09-03T17:56:19;2.70;;;1.05;;
5787;SDS011;2920;48.158;12.254;2022-09-03T17:59:29;2.35;;;1.23;;
5787;SDS011;2920;48.158;12.254;2022-09-03T18:04:42;1.37;;;0.90;;
5787;SDS011;2920;48.158;12.254;2022-09-03T18:07:19;2.03;;;1.50;;
5787;SDS011;2920;48.158;12.254;2022-09-03T18:14:59;2.03;;;1.30;;
5787;SDS011;2920;48.158;12.254;2022-09-03T18:17:34;2.42;;;1.75;;
5787;SDS011;2920;48.158;12.254;2022-09-03T18:20:07;2.70;;;1.60;;
5787;SDS011;2920;48.158;12.254;2022-09-03T18:25:56;2.55;;;1.55;;
5787;SDS011;2920;48.158;12.254;2022-09-03T18:28:51;4.82;;;2.00;;
5787;SDS011;2920;48.158;12.254;2022-09-03T18:31:39;3.47;;;1.63;;
5787;SDS011;2920;48.158;12.254;2022-09-03T18:34:30;1.52;;;1.33;;
5787;SDS011;2920;48.158;12.254;2022-09-03T18:37:22;2.63;;;1.98;;
5787;SDS011;2920;48.158;12.254;2022-09-03T18:40:08;2.90;;;1.40;;
5787;SDS011;2920;48.158;12.254;2022-09-03T18:42:58;1.63;;;1.35;;
5787;SDS011;2920;48.158;12.254;2022-09-03T18:49:30;2.38;;;1.75;;
5787;SDS011;2920;48.158;12.254;2022-09-03T18:52:20;2.10;;;1.27;;
5787;SDS011;2920;48.158;12.254;2022-09-03T18:58:06;4.22;;;1.77;;
5787;SDS011;2920;48.158;12.254;2022-09-03T19:07:07;3.80;;;1.60;;
5787;SDS011;2920;48.158;12.254;2022-09-03T19:15:44;3.40;;;1.48;;
5787;SDS011;2920;48.158;12.254;2022-09-03T19:21:48;2.25;;;1.08;;
5787;SDS011;2920;48.158;12.254;2022-09-03T19:24:33;3.88;;;1.85;;
5787;SDS011;2920;48.158;12.254;2022-09-03T19:27:39;5.03;;;2.00;;
5787;SDS011;2920;48.158;12.254;2022-09-03T19:33:55;1.42;;;1.10;;
5787;SDS011;2920;48.158;12.254;2022-09-03T19:43:10;2.08;;;0.82;;
5787;SDS011;2920;48.158;12.254;2022-09-03T19:49:06;2.35;;;1.13;;
5787;SDS011;2920;48.158;12.254;2022-09-03T19:54:54;3.33;;;1.38;;
5787;SDS011;2920;48.158;12.254;2022-09-03T19:57:39;1.30;;;1.20;;
5787;SDS011;2920;48.158;12.254;2022-09-03T20:00:24;1.48;;;1.17;;
5787;SDS011;2920;48.158;12.254;2022-09-03T20:03:08;2.55;;;1.27;;
5787;SDS011;2920;48.158;12.254;2022-09-03T20:05:54;1.85;;;1.20;;
5787;SDS011;2920;48.158;12.254;2022-09-03T20:08:38;1.50;;;1.30;;
5787;SDS011;2920;48.158;12.254;2022-09-03T20:11:22;1.92;;;1.40;;
5787;SDS011;2920;48.158;12.254;2022-09-03T20:13:49;1.10;;;0.98;;
5787;SDS011;2920;48.158;12.254;2022-09-03T20:21:38;3.53;;;1.00;;
5787;SDS011;2920;48.158;12.254;2022-09-03T20:24:14;2.25;;;1.05;;
5787;SDS011;2920;48.158;12.254;2022-09-03T20:37:33;4.18;;;1.95;;
5787;SDS011;2920;48.158;12.254;2022-09-03T20:48:51;1.10;;;0.95;;
5787;SDS011;2920;48.158;12.254;2022-09-03T20:51:24;1.35;;;1.17;;
5787;SDS011;2920;48.158;12.254;2022-09-03T20:59:24;1.40;;;0.82;;
5787;SDS011;2920;48.158;12.254;2022-09-03T21:07:36;1.10;;;1.00;;
5787;SDS011;2920;48.158;12.254;2022-09-03T21:23:12;1.27;;;1.10;;
5787;SDS011;2920;48.158;12.254;2022-09-03T21:26:24;1.48;;;1.27;;
5787;SDS011;2920;48.158;12.254;2022-09-03T21:28:38;1.92;;;1.45;;
5787;SDS011;2920;48.158;12.254;2022-09-03T21:31:08;2.35;;;1.70;;
5787;SDS011;2920;48.158;12.254;2022-09-03T21:33:47;1.55;;;1.20;;
5787;SDS011;2920;48.158;12.254;2022-09-03T21:36:32;0.90;;;0.90;;
5787;SDS011;2920;48.158;12.254;2022-09-03T21:39:09;1.15;;;0.90;;
5787;SDS011;2920;48.158;12.254;2022-09-03T21:44:21;3.17;;;1.15;;
5787;SDS011;2920;48.158;12.254;2022-09-03T21:46:53;2.03;;;1.50;;
5787;SDS011;2920;48.158;12.254;2022-09-03T21:49:25;1.50;;;1.30;;
5787;SDS011;2920;48.158;12.254;2022-09-03T21:54:26;1.33;;;1.10;;
5787;SDS011;2920;48.158;12.254;2022-09-03T22:02:05;1.88;;;1.50;;
5787;SDS011;2920;48.158;12.254;2022-09-03T22:04:40;1.50;;;1.27;;
5787;SDS011;2920;48.158;12.254;2022-09-03T22:07:13;1.83;;;1.38;;
5787;SDS011;2920;48.158;12.254;2022-09-03T22:09:45;1.95;;;1.60;;
5787;SDS011;2920;48.158;12.254;2022-09-03T22:12:19;5.72;;;3.58;;
5787;SDS011;2920;48.158;12.254;2022-09-03T22:14:49;2.20;;;1.60;;
5787;SDS011;2920;48.158;12.254;2022-09-03T22:17:17;2.00;;;1.50;;
5787;SDS011;2920;48.158;12.254;2022-09-03T22:20:07;2.25;;;1.67;;
5787;SDS011;2920;48.158;12.254;2022-09-03T22:28:09;2.28;;;1.95;;
5787;SDS011;2920;48.158;12.254;2022-09-03T22:30:41;1.88;;;1.60;;
5787;SDS011;2920;48.158;12.254;2022-09-03T22:33:23;3.47;;;1.75;;
5787;SDS011;2920;48.158;12.254;2022-09-03T22:41:19;2.63;;;1.85;;
5787;SDS011;2920;48.158;12.254;2022-09-03T22:43:53;2.05;;;1.60;;
5787;SDS011;2920;48.158;12.254;2022-09-03T22:46:26;1.98;;;1.75;;
5787;SDS011;2920;48.158;12.254;2022-09-03T22:54:23;3.20;;;1.75;;
5787;SDS011;2920;48.158;12.254;2022-09-03T22:56:56;2.70;;;1.90;;
5787;SDS011;2920;48.158;12.254;2022-09-03T22:59:27;1.92;;;1.48;;
5787;SDS011;2920;48.158;12.254;2022-09-03T23:01:59;2.25;;;1.20;;
5787;SDS011;2920;48.158;12.254;2022-09-03T23:10:25;1.48;;;1.13;;